createdAt,value
2019-05-20T00:02:29.557Z,99923.81
2019-05-20T00:04:59.749Z,99925.89
2019-05-20T00:07:29.980Z,99921.38
2019-05-20T00:10:00.138Z,99924.95
2019-05-20T00:12:31.658Z,99933.91
2019-05-20T00:15:02.612Z,99935.25
2019-05-20T00:17:32.856Z,99931.88
2019-05-20T00:20:03.156Z,99936.58
2019-05-20T00:22:33.386Z,99935.48
2019-05-20T00:25:04.566Z,99930.91
2019-05-20T00:27:34.845Z,99928.48
2019-05-20T00:30:06.301Z,99926.19
2019-05-20T00:32:41.355Z,99927.96
2019-05-20T00:35:08.591Z,99928.23
2019-05-20T00:37:39.016Z,99926.69
2019-05-20T00:40:10.528Z,99926.84
2019-05-20T00:42:40.647Z,99918.41
2019-05-20T00:45:11.178Z,99918.98
2019-05-20T00:47:41.270Z,99920.71
2019-05-20T00:50:11.423Z,99922.72
2019-05-20T00:52:41.747Z,99924.51
2019-05-20T00:55:24.532Z,99921.17
2019-05-20T00:57:54.637Z,99920.02
2019-05-20T01:00:24.928Z,99920.65
2019-05-20T01:02:57.274Z,99923.02
2019-05-20T01:05:27.439Z,99928.14
2019-05-20T01:07:57.544Z,99932.02
2019-05-20T01:10:27.717Z,99929.13
2019-05-20T01:12:57.952Z,99927.98
2019-05-20T01:15:28.091Z,99920.11
2019-05-20T01:17:58.275Z,99924.29
2019-05-20T01:20:28.391Z,99926.29
2019-05-20T01:22:58.680Z,99925.09
2019-05-20T01:25:28.882Z,99934.53
2019-05-20T01:27:59.037Z,99932.13
2019-05-20T01:30:29.168Z,99932.75
2019-05-20T01:33:12.770Z,99929.41
2019-05-20T01:35:31.163Z,99935.86
2019-05-20T01:38:01.437Z,99934.84
2019-05-20T01:40:31.569Z,99942.70
2019-05-20T01:43:01.795Z,99941.63
2019-05-20T01:45:31.914Z,99939.50
2019-05-20T01:48:02.124Z,99941.41
2019-05-20T01:50:32.399Z,99943.27
2019-05-20T01:53:02.770Z,99944.61
2019-05-20T01:55:32.870Z,99937.31
2019-05-20T01:58:03.063Z,99940.14
2019-05-20T02:00:33.178Z,99935.38
2019-05-20T02:03:03.356Z,99938.50
2019-05-20T02:05:33.493Z,99932.56
2019-05-20T02:08:03.919Z,99937.02
2019-05-20T02:10:34.054Z,99943.45
2019-05-20T02:13:04.266Z,99939.06
2019-05-20T02:15:43.037Z,99939.05
2019-05-20T02:18:13.184Z,99941.13
2019-05-20T02:20:43.384Z,99938.83
2019-05-20T02:23:16.812Z,99942.77
2019-05-20T02:25:48.130Z,99931.13
2019-05-20T02:28:18.298Z,99933.01
2019-05-20T02:30:48.454Z,99938.81
2019-05-20T02:33:18.650Z,99937.33
2019-05-20T02:35:48.847Z,99938.83
2019-05-20T02:38:19.532Z,99936.55
2019-05-20T02:40:49.672Z,99933.49
2019-05-20T02:43:19.979Z,99933.94
2019-05-20T02:45:50.096Z,99934.34
2019-05-20T02:48:27.465Z,99937.66
2019-05-20T02:51:00.062Z,99939.92
2019-05-20T02:53:36.223Z,99948.45
2019-05-20T02:56:07.670Z,99945.47
2019-05-20T02:58:40.150Z,99945.23
2019-05-20T03:01:10.329Z,99944.14
2019-05-20T03:03:40.723Z,99943.98
2019-05-20T03:06:13.260Z,99939.13
2019-05-20T03:08:43.454Z,99943.58
2019-05-20T03:11:13.612Z,99938.90
2019-05-20T03:13:43.848Z,99946.09
2019-05-20T03:16:15.697Z,99946.58
2019-05-20T03:18:46.786Z,99931.59
2019-05-20T03:21:22.729Z,99938.41
2019-05-20T03:23:56.176Z,99939.87
2019-05-20T03:26:26.312Z,99945.36
2019-05-20T03:28:56.498Z,99952.23
2019-05-20T03:31:26.647Z,99949.06
2019-05-20T03:33:58.406Z,99949.30
2019-05-20T03:36:33.042Z,99950.28
2019-05-20T03:39:05.020Z,99945.16
2019-05-20T03:41:35.216Z,99941.33
2019-05-20T03:44:05.458Z,99942.53
2019-05-20T03:46:35.554Z,99947.81
2019-05-20T03:49:05.703Z,99943.45
2019-05-20T03:51:35.960Z,99945.91
2019-05-20T03:54:09.510Z,99946.22
2019-05-20T03:56:40.854Z,99942.55
2019-05-20T03:59:13.881Z,99946.41
2019-05-20T04:01:45.086Z,99952.15
2019-05-20T04:04:15.229Z,99957.35
2019-05-20T04:06:45.395Z,99952.27
2019-05-20T04:09:15.558Z,99955.55
2019-05-20T04:11:45.677Z,99954.94
2019-05-20T04:14:19.144Z,99956.11
2019-05-20T04:16:53.121Z,99952.52
2019-05-20T04:19:23.218Z,99955.98
2019-05-20T04:21:55.695Z,99955.26
2019-05-20T04:24:25.918Z,99953.72
2019-05-20T04:26:59.818Z,99957.95
2019-05-20T04:29:30.001Z,99950.88
2019-05-20T04:32:00.293Z,99958.83
2019-05-20T04:34:32.149Z,99958.65
2019-05-20T04:37:04.346Z,99961.20
2019-05-20T04:39:38.164Z,99961.52
2019-05-20T04:42:08.344Z,99948.55
2019-05-20T04:44:39.364Z,99952.44
2019-05-20T04:47:09.522Z,99952.39
2019-05-20T04:49:39.995Z,99955.53
2019-05-20T04:52:12.385Z,99950.66
2019-05-20T04:54:42.491Z,99951.94
2019-05-20T04:57:12.606Z,99952.16
2019-05-20T04:59:42.734Z,99955.37
2019-05-20T05:02:13.105Z,99950.80
2019-05-20T05:04:43.489Z,99950.68
2019-05-20T05:07:14.033Z,99949.56
2019-05-20T05:09:44.508Z,99955.81
2019-05-20T05:12:14.680Z,99959.36
2019-05-20T05:14:44.846Z,99956.83
2019-05-20T05:17:15.014Z,99957.14
2019-05-20T05:19:45.164Z,99962.26
2019-05-20T05:22:15.381Z,99965.50
2019-05-20T05:24:45.716Z,99968.44
2019-05-20T05:27:16.053Z,99963.77
2019-05-20T05:29:46.379Z,99966.27
2019-05-20T05:32:18.891Z,99971.50
2019-05-20T05:34:49.043Z,99972.22
2019-05-20T05:37:19.221Z,99968.16
2019-05-20T05:39:49.924Z,99976.92
2019-05-20T05:42:20.877Z,99965.94
2019-05-20T05:44:51.359Z,99962.50
2019-05-20T05:47:21.584Z,99968.61
2019-05-20T05:49:51.814Z,99966.73
2019-05-20T05:52:22.981Z,99967.85
2019-05-20T05:54:54.181Z,99972.66
2019-05-20T05:57:30.869Z,99975.02
2019-05-20T06:00:01.048Z,99973.90
2019-05-20T06:02:32.234Z,99970.52
2019-05-20T06:05:03.300Z,99977.95
2019-05-20T06:07:35.221Z,99973.83
2019-05-20T06:10:08.488Z,99970.64
2019-05-20T06:12:38.750Z,99962.47
2019-05-20T06:15:11.929Z,99960.94
2019-05-20T06:17:42.384Z,99966.39
2019-05-20T06:20:12.794Z,99972.95
2019-05-20T06:22:43.045Z,99977.36
2019-05-20T06:25:14.268Z,99980.63
2019-05-20T06:27:44.532Z,99980.50
2019-05-20T06:30:16.529Z,99982.43
2019-05-20T06:32:47.450Z,99984.91
2019-05-20T06:35:17.989Z,99982.62
2019-05-20T06:37:53.669Z,99975.92
2019-05-20T06:40:24.143Z,99980.63
2019-05-20T06:42:55.427Z,99984.06
2019-05-20T06:45:25.727Z,99989.97
2019-05-20T06:47:55.885Z,99986.45
2019-05-20T06:50:29.516Z,99987.02
2019-05-20T06:52:58.253Z,99991.51
2019-05-20T06:55:29.729Z,99993.89
2019-05-20T06:58:01.059Z,99986.34
2019-05-20T07:00:36.191Z,99990.06
2019-05-20T07:03:06.675Z,99988.14
2019-05-20T07:05:40.944Z,99982.43
2019-05-20T07:08:14.509Z,99986.45
2019-05-20T07:10:45.596Z,99989.88
2019-05-20T07:13:16.726Z,99989.88
2019-05-20T07:15:46.962Z,99994.97
2019-05-20T07:18:18.500Z,100001.17
2019-05-20T07:20:48.929Z,100000.59
2019-05-20T07:23:22.407Z,99991.05
2019-05-20T07:25:54.267Z,99989.41
2019-05-20T07:28:25.231Z,99990.66
2019-05-20T07:30:55.640Z,99993.33
2019-05-20T07:33:26.265Z,99996.78
2019-05-20T07:35:56.846Z,99986.17
2019-05-20T07:38:30.211Z,99982.83
2019-05-20T07:41:01.911Z,99985.39
2019-05-20T07:43:32.248Z,99984.23
2019-05-20T07:46:07.743Z,99986.91
2019-05-20T07:48:41.027Z,99985.56
2019-05-20T07:51:12.695Z,99983.41
2019-05-20T07:53:46.878Z,99992.97
2019-05-20T07:56:23.038Z,99989.16
2019-05-20T07:58:57.061Z,99997.66
2019-05-20T08:01:27.684Z,99997.06
2019-05-20T08:04:00.234Z,99990.88
2019-05-20T08:06:33.592Z,99988.59
2019-05-20T08:09:05.838Z,99979.97
2019-05-20T08:11:39.214Z,99986.84
2019-05-20T08:14:09.465Z,99984.63
2019-05-20T08:16:39.870Z,99983.61
2019-05-20T08:19:10.334Z,99972.70
2019-05-20T08:21:42.148Z,99979.14
2019-05-20T08:24:15.578Z,99980.47
2019-05-20T08:26:46.106Z,99977.45
2019-05-20T08:29:16.669Z,99976.80
2019-05-20T08:31:46.989Z,99976.80
2019-05-20T08:34:18.042Z,99974.58
2019-05-20T08:36:51.819Z,99967.99
2019-05-20T08:39:22.181Z,99967.97
2019-05-20T08:41:53.259Z,99966.56
2019-05-20T08:44:24.063Z,99971.09
2019-05-20T08:46:56.362Z,99966.95
2019-05-20T08:49:29.531Z,99969.28
2019-05-20T08:52:00.224Z,99972.57
2019-05-20T08:54:31.165Z,99965.44
2019-05-20T08:57:01.472Z,99969.86
2019-05-20T08:59:33.582Z,99970.20
2019-05-20T09:02:03.994Z,99968.98
2019-05-20T09:04:34.144Z,99970.23
2019-05-20T09:07:04.954Z,99974.36
2019-05-20T09:09:35.416Z,99973.30
2019-05-20T09:12:05.841Z,99976.22
2019-05-20T09:14:40.494Z,99971.59
2019-05-20T09:17:10.937Z,99976.72
2019-05-20T09:19:41.298Z,99981.52
2019-05-20T09:22:11.519Z,99984.94
2019-05-20T09:24:41.748Z,99976.84
2019-05-20T09:27:12.682Z,99971.63
2019-05-20T09:29:43.976Z,99972.90
2019-05-20T09:32:16.487Z,99963.91
2019-05-20T09:34:49.314Z,99969.77
2019-05-20T09:37:25.698Z,99975.05
2019-05-20T09:39:59.251Z,99970.79
2019-05-20T09:42:40.658Z,99970.25
2019-05-20T09:45:09.980Z,99976.70
2019-05-20T09:47:46.625Z,99968.74
2019-05-20T09:50:16.806Z,99961.45
2019-05-20T09:52:48.399Z,99959.88
2019-05-20T09:55:22.198Z,99962.83
2019-05-20T09:57:52.875Z,99966.12
2019-05-20T10:00:23.223Z,99958.53
2019-05-20T10:02:55.031Z,99969.06
2019-05-20T10:05:25.555Z,99963.17
2019-05-20T10:07:55.775Z,99958.17
2019-05-20T10:10:26.236Z,99954.77
2019-05-20T10:12:59.438Z,99953.77
2019-05-20T10:15:31.287Z,99952.30
2019-05-20T10:18:01.405Z,99953.41
2019-05-20T10:20:31.654Z,99953.41
2019-05-20T10:23:06.629Z,99957.94
2019-05-20T10:25:36.888Z,99957.42
2019-05-20T10:28:07.095Z,99960.05
2019-05-20T10:30:37.627Z,99959.70
2019-05-20T10:33:10.216Z,99948.22
2019-05-20T10:35:39.637Z,99953.88
2019-05-20T10:38:09.891Z,99957.66
2019-05-20T10:40:40.153Z,99953.23
2019-05-20T10:43:10.336Z,99942.34
2019-05-20T10:45:40.585Z,99938.16
2019-05-20T10:48:10.733Z,99944.72
2019-05-20T10:50:44.683Z,99953.44
2019-05-20T10:53:15.797Z,99953.06
2019-05-20T10:55:46.300Z,99942.42
2019-05-20T10:58:16.587Z,99938.30
2019-05-20T11:01:01.759Z,99927.88
2019-05-20T11:03:18.523Z,99927.61
2019-05-20T11:05:48.650Z,99932.70
2019-05-20T11:08:18.780Z,99926.53
2019-05-20T11:10:48.947Z,99936.39
2019-05-20T11:13:19.321Z,99935.44
2019-05-20T11:15:50.025Z,99941.89
2019-05-20T11:18:20.294Z,99938.35
2019-05-20T11:20:50.427Z,99931.78
2019-05-20T11:23:20.549Z,99931.64
2019-05-20T11:25:50.669Z,99929.70
2019-05-20T11:28:20.812Z,99930.52
2019-05-20T11:30:53.312Z,99934.12
2019-05-20T11:33:23.475Z,99932.83
2019-05-20T11:35:54.219Z,99932.13
2019-05-20T11:38:24.540Z,99935.86
2019-05-20T11:40:54.824Z,99936.04
2019-05-20T11:43:25.238Z,99935.28
2019-05-20T11:45:55.405Z,99936.58
2019-05-20T11:48:25.715Z,99935.08
2019-05-20T11:50:55.854Z,99942.59
2019-05-20T11:53:25.998Z,99946.06
2019-05-20T11:55:57.121Z,99945.27
2019-05-20T11:58:27.376Z,99940.13
2019-05-20T12:00:57.504Z,99940.23
2019-05-20T12:03:27.664Z,99936.94
2019-05-20T12:05:57.880Z,99935.02
2019-05-20T12:08:28.033Z,99941.45
2019-05-20T12:10:58.152Z,99940.46
2019-05-20T12:13:28.545Z,99943.92
2019-05-20T12:15:58.638Z,99938.24
2019-05-20T12:18:28.796Z,99938.43
2019-05-20T12:20:58.982Z,99932.97
2019-05-20T12:23:29.259Z,99936.52
2019-05-20T12:25:59.415Z,99921.45
2019-05-20T12:28:29.619Z,99920.09
2019-05-20T12:30:59.743Z,99905.41
2019-05-20T12:33:30.070Z,99907.03
2019-05-20T12:36:00.462Z,99897.22
2019-05-20T12:38:30.770Z,99897.14
2019-05-20T12:41:00.929Z,99884.08
2019-05-20T12:43:33.423Z,99887.95
2019-05-20T12:46:04.347Z,99885.91
2019-05-20T12:48:34.688Z,99883.92
2019-05-20T12:51:04.796Z,99879.91
2019-05-20T12:53:35.115Z,99873.54
2019-05-20T12:56:05.252Z,99869.19
2019-05-20T12:58:35.417Z,99864.21
2019-05-20T13:01:05.575Z,99865.32
2019-05-20T13:03:35.678Z,99871.02
2019-05-20T13:06:05.866Z,99864.66
2019-05-20T13:08:36.073Z,99861.56
2019-05-20T13:11:06.167Z,99845.89
2019-05-20T13:13:36.274Z,99849.28
2019-05-20T13:16:07.557Z,99844.74
2019-05-20T13:18:55.020Z,99847.38
2019-05-20T13:21:12.034Z,99848.28
2019-05-20T13:23:42.250Z,99840.72
2019-05-20T13:26:12.695Z,99836.20
2019-05-20T13:28:42.879Z,99836.58
2019-05-20T13:31:13.018Z,99830.19
2019-05-20T13:33:43.389Z,99828.72
2019-05-20T13:36:14.647Z,99825.28
2019-05-20T13:38:44.916Z,99830.28
2019-05-20T13:41:15.120Z,99824.47
2019-05-20T13:43:45.484Z,99823.00
2019-05-20T13:46:15.656Z,99828.83
2019-05-20T13:48:45.847Z,99814.20
2019-05-20T13:51:16.018Z,99814.80
2019-05-20T13:53:46.130Z,99811.41
2019-05-20T13:56:17.071Z,99809.37
2019-05-20T13:58:47.203Z,99810.42
2019-05-20T14:01:18.375Z,99807.85
2019-05-20T14:03:48.674Z,99803.33
2019-05-20T14:06:18.791Z,99793.00
2019-05-20T14:08:49.263Z,99794.61
2019-05-20T14:11:33.787Z,99773.49
2019-05-20T14:13:51.499Z,99773.49
2019-05-20T14:16:21.682Z,99789.04
2019-05-20T14:18:51.850Z,99760.31
2019-05-20T14:21:23.138Z,99760.31
2019-05-20T14:23:53.509Z,99767.25
2019-05-20T14:26:23.775Z,99765.88
2019-05-20T14:28:54.009Z,99768.93
2019-05-20T14:31:24.373Z,99763.23
2019-05-20T14:33:57.210Z,99772.20
2019-05-20T14:36:39.514Z,99767.09
2019-05-20T14:39:02.574Z,99766.58
2019-05-20T14:41:34.100Z,99763.29
2019-05-20T14:44:04.565Z,99757.41
2019-05-20T14:46:36.615Z,99756.80
2019-05-20T14:49:06.905Z,99751.77
2019-05-20T14:51:37.234Z,99749.69
2019-05-20T14:54:08.973Z,99734.92
2019-05-20T14:56:39.514Z,99735.67
2019-05-20T14:59:09.717Z,99733.38
2019-05-20T15:01:40.009Z,99735.16
2019-05-20T15:04:10.289Z,99726.61
2019-05-20T15:06:40.658Z,99734.67
2019-05-20T15:09:11.173Z,99737.08
2019-05-20T15:11:41.868Z,99730.19
2019-05-20T15:14:12.098Z,99734.02
2019-05-20T15:16:43.780Z,99731.18
2019-05-20T15:19:14.228Z,99735.53
2019-05-20T15:21:44.602Z,99720.29
2019-05-20T15:24:14.854Z,99722.08
2019-05-20T15:26:45.071Z,99734.84
2019-05-20T15:29:27.720Z,99718.51
2019-05-20T15:31:47.508Z,99731.67
2019-05-20T15:34:24.271Z,99737.27
2019-05-20T15:36:54.550Z,99735.73
2019-05-20T15:39:27.041Z,99738.97
2019-05-20T15:42:00.525Z,99738.88
2019-05-20T15:44:33.636Z,99745.92
2019-05-20T15:47:03.783Z,99750.38
2019-05-20T15:49:33.970Z,99750.19
2019-05-20T15:52:06.670Z,99748.27
2019-05-20T15:54:36.883Z,99746.55
2019-05-20T15:57:07.119Z,99746.77
2019-05-20T15:59:45.983Z,99749.69
2019-05-20T16:02:13.755Z,99745.69
2019-05-20T16:04:45.525Z,99748.64
2019-05-20T16:07:15.751Z,99749.44
2019-05-20T16:09:45.896Z,99752.28
2019-05-20T16:12:17.430Z,99753.77
2019-05-20T16:14:51.426Z,99758.33
2019-05-20T16:17:22.784Z,99773.73
2019-05-20T16:19:54.160Z,99765.07
2019-05-20T16:22:24.345Z,99774.12
2019-05-20T16:24:54.485Z,99771.73
2019-05-20T16:27:24.741Z,99771.93
2019-05-20T16:30:06.213Z,99775.73
2019-05-20T16:32:29.393Z,99779.31
2019-05-20T16:34:59.709Z,99769.34
2019-05-20T16:37:34.619Z,99774.44
2019-05-20T16:40:11.317Z,99781.75
2019-05-20T16:42:43.292Z,99779.07
2019-05-20T16:45:16.216Z,99777.10
2019-05-20T16:47:55.190Z,99784.84
2019-05-20T16:50:25.652Z,99780.52
2019-05-20T16:52:56.013Z,99780.94
2019-05-20T16:55:29.489Z,99786.02
2019-05-20T16:57:59.552Z,99789.08
2019-05-20T17:00:32.180Z,99797.23
2019-05-20T17:03:02.522Z,99801.28
2019-05-20T17:05:33.001Z,99816.38
2019-05-20T17:08:03.139Z,99829.12
2019-05-20T17:10:33.365Z,99838.47
2019-05-20T17:13:03.859Z,99840.67
2019-05-20T17:15:34.309Z,99841.48
2019-05-20T17:18:04.962Z,99839.02
2019-05-20T17:20:35.174Z,99841.08
2019-05-20T17:23:05.464Z,99845.12
2019-05-20T17:25:35.693Z,99835.58
2019-05-20T17:28:06.035Z,99840.05
2019-05-20T17:30:45.238Z,99846.82
2019-05-20T17:33:09.595Z,99844.99
2019-05-20T17:35:40.473Z,99841.45
2019-05-20T17:38:10.950Z,99841.83
2019-05-20T17:40:41.469Z,99842.56
2019-05-20T17:43:11.668Z,99842.23
2019-05-20T17:45:41.962Z,99843.69
2019-05-20T17:48:12.963Z,99837.09
2019-05-20T17:50:43.482Z,99844.45
2019-05-20T17:53:13.750Z,99842.98
2019-05-20T17:55:44.023Z,99834.81
2019-05-20T17:58:15.230Z,99837.38
2019-05-20T18:00:45.863Z,99838.60
2019-05-20T18:03:16.457Z,99830.41
2019-05-20T18:05:46.751Z,99839.10
2019-05-20T18:08:16.979Z,99840.83
2019-05-20T18:10:47.169Z,99847.69
2019-05-20T18:13:17.395Z,99851.59
2019-05-20T18:15:51.316Z,99854.30
2019-05-20T18:18:21.523Z,99857.00
2019-05-20T18:20:52.430Z,99849.27
2019-05-20T18:23:24.417Z,99855.66
2019-05-20T18:25:55.711Z,99859.57
2019-05-20T18:28:37.087Z,99862.36
2019-05-20T18:31:08.747Z,99861.95
2019-05-20T18:33:40.478Z,99860.97
2019-05-20T18:36:13.199Z,99874.81
2019-05-20T18:38:43.581Z,99860.95
2019-05-20T18:41:16.102Z,99865.95
2019-05-20T18:43:46.368Z,99871.84
2019-05-20T18:46:18.253Z,99873.13
2019-05-20T18:48:48.699Z,99879.98
2019-05-20T18:51:24.997Z,99885.05
2019-05-20T18:53:55.911Z,99887.88
2019-05-20T18:56:27.324Z,99884.63
2019-05-20T18:58:58.780Z,99877.27
2019-05-20T19:01:28.973Z,99887.63
2019-05-20T19:04:00.437Z,99894.81
2019-05-20T19:06:30.554Z,99888.53
2019-05-20T19:09:02.841Z,99884.50
2019-05-20T19:11:34.644Z,99881.16
2019-05-20T19:14:08.115Z,99884.59
2019-05-20T19:16:36.671Z,99885.70
2019-05-20T19:19:06.782Z,99891.12
2019-05-20T19:21:37.106Z,99885.28
2019-05-20T19:24:07.399Z,99885.67
2019-05-20T19:26:37.553Z,99889.16
2019-05-20T19:29:07.799Z,99874.19
2019-05-20T19:31:38.063Z,99875.11
2019-05-20T19:34:08.381Z,99880.14
2019-05-20T19:36:39.677Z,99879.72
2019-05-20T19:39:10.061Z,99883.08
2019-05-20T19:41:41.863Z,99880.44
2019-05-20T19:44:13.423Z,99888.27
2019-05-20T19:46:44.152Z,99886.23
2019-05-20T19:49:14.420Z,99884.09
2019-05-20T19:51:44.896Z,99886.59
2019-05-20T19:54:15.179Z,99879.52
2019-05-20T19:56:45.442Z,99881.63
2019-05-20T19:59:15.695Z,99884.94
2019-05-20T20:01:45.921Z,99883.32
2019-05-20T20:04:16.312Z,99878.86
2019-05-20T20:06:46.846Z,99884.12
2019-05-20T20:09:17.068Z,99889.34
2019-05-20T20:11:47.197Z,99891.17
2019-05-20T20:14:17.386Z,99891.01
2019-05-20T20:16:48.867Z,99892.45
2019-05-20T20:19:19.159Z,99895.30
2019-05-20T20:21:49.283Z,99895.70
2019-05-20T20:24:19.622Z,99886.30
2019-05-20T20:26:49.755Z,99885.92
2019-05-20T20:29:20.023Z,99882.88
2019-05-20T20:31:50.475Z,99878.64
2019-05-20T20:34:20.721Z,99892.28
2019-05-20T20:36:50.894Z,99887.24
2019-05-20T20:39:21.511Z,99880.25
2019-05-20T20:41:51.788Z,99878.53
2019-05-20T20:44:22.354Z,99881.03
2019-05-20T20:46:52.531Z,99882.16
2019-05-20T20:49:24.875Z,99887.73
2019-05-20T20:51:55.109Z,99895.95
2019-05-20T20:54:26.302Z,99888.48
2019-05-20T20:56:56.539Z,99888.30
2019-05-20T20:59:27.388Z,99892.81
2019-05-20T21:01:59.307Z,99888.73
2019-05-20T21:04:29.743Z,99888.34
2019-05-20T21:07:00.253Z,99889.51
2019-05-20T21:09:30.757Z,99889.51
2019-05-20T21:12:00.921Z,99891.27
2019-05-20T21:14:31.158Z,99883.89
2019-05-20T21:17:02.679Z,99887.25
2019-05-20T21:19:33.094Z,99886.65
2019-05-20T21:22:04.113Z,99891.83
2019-05-20T21:24:34.806Z,99888.62
2019-05-20T21:27:05.088Z,99893.38
2019-05-20T21:29:35.250Z,99883.23
2019-05-20T21:32:05.603Z,99894.16
2019-05-20T21:34:35.874Z,99885.19
2019-05-20T21:37:09.045Z,99894.18
2019-05-20T21:39:40.128Z,99873.95
2019-05-20T21:42:10.455Z,99884.27
2019-05-20T21:44:40.659Z,99879.20
2019-05-20T21:47:10.973Z,99875.11
2019-05-20T21:49:41.959Z,99884.49
2019-05-20T21:52:12.110Z,99885.16
2019-05-20T21:54:42.560Z,99882.97
2019-05-20T21:57:12.762Z,99888.32
2019-05-20T21:59:42.959Z,99889.27
2019-05-20T22:02:13.453Z,99893.09
2019-05-20T22:04:43.675Z,99897.89
2019-05-20T22:07:15.287Z,99895.97
2019-05-20T22:09:48.486Z,99895.39
2019-05-20T22:12:18.715Z,99889.94
2019-05-20T22:14:48.965Z,99882.17
2019-05-20T22:17:19.435Z,99883.53
2019-05-20T22:19:49.699Z,99884.16
2019-05-20T22:22:44.698Z,99883.31
2019-05-20T22:25:14.997Z,99875.09
2019-05-20T22:27:45.095Z,99872.41
2019-05-20T22:30:15.519Z,99874.04
2019-05-20T22:32:45.704Z,99884.36
2019-05-20T22:35:16.157Z,99882.56
2019-05-20T22:37:46.341Z,99877.47
2019-05-20T22:40:16.592Z,99871.56
2019-05-20T22:42:46.803Z,99875.88
2019-05-20T22:45:17.009Z,99874.14
2019-05-20T22:47:48.252Z,99871.78
2019-05-20T22:50:18.521Z,99875.80
2019-05-20T22:52:48.714Z,99880.30
2019-05-20T22:55:18.906Z,99875.70
2019-05-20T22:57:49.125Z,99878.01
2019-05-20T23:00:19.413Z,99873.02
2019-05-20T23:02:49.583Z,99881.23
2019-05-20T23:05:19.833Z,99877.98
2019-05-20T23:07:52.906Z,99881.68
2019-05-20T23:10:23.147Z,99886.19
2019-05-20T23:12:53.715Z,99883.22
2019-05-20T23:15:24.125Z,99880.74
2019-05-20T23:17:57.330Z,99888.88
2019-05-20T23:20:32.851Z,99889.98
2019-05-20T23:23:06.737Z,99873.53
2019-05-20T23:25:37.369Z,99869.31
2019-05-20T23:28:07.648Z,99863.97
2019-05-20T23:30:37.937Z,99863.37
2019-05-20T23:33:08.186Z,99858.50
2019-05-20T23:35:39.270Z,99857.13
2019-05-20T23:38:09.423Z,99853.79
2019-05-20T23:40:39.601Z,99861.52
2019-05-20T23:43:10.024Z,99861.23
2019-05-20T23:45:40.311Z,99864.23
2019-05-20T23:48:10.853Z,99850.80
2019-05-20T23:50:41.260Z,99846.30
2019-05-20T23:53:11.479Z,99846.30
2019-05-20T23:55:41.772Z,99849.92
2019-05-20T23:58:12.929Z,99850.80
